sensor_id;sensor_type;location;lat;lon;timestamp;P1;durP1;ratioP1;P2;durP2;ratioP2
38224;SDS011;24025;48.138;11.428;2022-07-29T00:02:26;3.00;;;0.63;;
38224;SDS011;24025;48.138;11.428;2022-07-29T00:04:57;2.10;;;0.70;;
38224;SDS011;24025;48.138;11.428;2022-07-29T00:07:28;2.13;;;0.90;;
38224;SDS011;24025;48.138;11.428;2022-07-29T00:09:58;0.98;;;0.80;;
38224;SDS011;24025;48.138;11.428;2022-07-29T00:12:29;2.33;;;0.90;;
38224;SDS011;24025;48.138;11.428;2022-07-29T00:14:59;2.45;;;1.17;;
38224;SDS011;24025;48.138;11.428;2022-07-29T00:17:29;1.63;;;1.00;;
38224;SDS011;24025;48.138;11.428;2022-07-29T00:20:00;3.13;;;1.00;;
38224;SDS011;24025;48.138;11.428;2022-07-29T00:22:30;2.55;;;1.00;;
38224;SDS011;24025;48.138;11.428;2022-07-29T00:25:01;3.63;;;0.90;;
38224;SDS011;24025;48.138;11.428;2022-07-29T00:27:31;1.58;;;0.80;;
38224;SDS011;24025;48.138;11.428;2022-07-29T00:30:02;3.55;;;0.75;;
38224;SDS011;24025;48.138;11.428;2022-07-29T00:32:33;2.35;;;1.08;;
38224;SDS011;24025;48.138;11.428;2022-07-29T00:35:04;1.00;;;0.90;;
38224;SDS011;24025;48.138;11.428;2022-07-29T00:37:54;2.55;;;1.05;;
38224;SDS011;24025;48.138;11.428;2022-07-29T00:40:24;2.10;;;1.00;;
38224;SDS011;24025;48.138;11.428;2022-07-29T00:42:54;4.13;;;1.20;;
38224;SDS011;24025;48.138;11.428;2022-07-29T00:45:25;1.65;;;0.85;;
38224;SDS011;24025;48.138;11.428;2022-07-29T00:47:55;3.60;;;0.93;;
38224;SDS011;24025;48.138;11.428;2022-07-29T00:50:26;1.70;;;0.90;;
38224;SDS011;24025;48.138;11.428;2022-07-29T00:52:57;3.10;;;0.88;;
38224;SDS011;24025;48.138;11.428;2022-07-29T00:55:27;2.13;;;1.00;;
38224;SDS011;24025;48.138;11.428;2022-07-29T00:57:59;1.63;;;0.50;;
38224;SDS011;24025;48.138;11.428;2022-07-29T01:00:30;2.08;;;0.70;;
38224;SDS011;24025;48.138;11.428;2022-07-29T01:03:00;2.03;;;0.52;;
38224;SDS011;24025;48.138;11.428;2022-07-29T01:05:31;6.30;;;0.93;;
38224;SDS011;24025;48.138;11.428;2022-07-29T01:08:02;0.80;;;0.50;;
38224;SDS011;24025;48.138;11.428;2022-07-29T01:10:33;0.93;;;0.60;;
38224;SDS011;24025;48.138;11.428;2022-07-29T01:13:07;2.88;;;0.60;;
38224;SDS011;24025;48.138;11.428;2022-07-29T01:15:46;1.83;;;0.57;;
38224;SDS011;24025;48.138;11.428;2022-07-29T01:18:24;1.13;;;0.65;;
38224;SDS011;24025;48.138;11.428;2022-07-29T01:26:39;1.13;;;0.57;;
38224;SDS011;24025;48.138;11.428;2022-07-29T01:29:20;2.55;;;0.80;;
38224;SDS011;24025;48.138;11.428;2022-07-29T01:32:12;1.50;;;0.70;;
38224;SDS011;24025;48.138;11.428;2022-07-29T01:42:57;0.50;;;0.50;;
38224;SDS011;24025;48.138;11.428;2022-07-29T01:45:33;0.80;;;0.55;;
38224;SDS011;24025;48.138;11.428;2022-07-29T01:50:48;2.30;;;0.75;;
38224;SDS011;24025;48.138;11.428;2022-07-29T01:53:32;1.42;;;0.60;;
38224;SDS011;24025;48.138;11.428;2022-07-29T01:56:07;0.65;;;0.40;;
38224;SDS011;24025;48.138;11.428;2022-07-29T01:58:41;0.40;;;0.40;;
38224;SDS011;24025;48.138;11.428;2022-07-29T02:01:13;0.80;;;0.50;;
38224;SDS011;24025;48.138;11.428;2022-07-29T02:06:18;0.68;;;0.45;;
38224;SDS011;24025;48.138;11.428;2022-07-29T02:08:51;1.33;;;0.50;;
38224;SDS011;24025;48.138;11.428;2022-07-29T02:11:23;0.50;;;0.45;;
38224;SDS011;24025;48.138;11.428;2022-07-29T02:13:54;0.70;;;0.68;;
38224;SDS011;24025;48.138;11.428;2022-07-29T02:16:28;0.82;;;0.70;;
38224;SDS011;24025;48.138;11.428;2022-07-29T02:19:02;1.35;;;0.63;;
38224;SDS011;24025;48.138;11.428;2022-07-29T02:24:05;0.60;;;0.60;;
38224;SDS011;24025;48.138;11.428;2022-07-29T02:26:39;1.30;;;0.75;;
38224;SDS011;24025;48.138;11.428;2022-07-29T02:29:11;0.95;;;0.55;;
38224;SDS011;24025;48.138;11.428;2022-07-29T02:31:44;2.95;;;0.60;;
38224;SDS011;24025;48.138;11.428;2022-07-29T02:34:17;0.55;;;0.40;;
38224;SDS011;24025;48.138;11.428;2022-07-29T02:36:49;0.60;;;0.60;;
38224;SDS011;24025;48.138;11.428;2022-07-29T02:39:21;0.70;;;0.60;;
38224;SDS011;24025;48.138;11.428;2022-07-29T02:41:55;1.48;;;0.50;;
38224;SDS011;24025;48.138;11.428;2022-07-29T02:44:31;3.88;;;0.70;;
38224;SDS011;24025;48.138;11.428;2022-07-29T02:47:10;2.63;;;0.60;;
38224;SDS011;24025;48.138;11.428;2022-07-29T02:50:06;0.45;;;0.30;;
38224;SDS011;24025;48.138;11.428;2022-07-29T02:52:42;1.55;;;0.57;;
38224;SDS011;24025;48.138;11.428;2022-07-29T02:58:31;1.63;;;0.73;;
38224;SDS011;24025;48.138;11.428;2022-07-29T03:00:41;1.33;;;0.70;;
38224;SDS011;24025;48.138;11.428;2022-07-29T03:03:15;2.78;;;0.70;;
38224;SDS011;24025;48.138;11.428;2022-07-29T03:05:47;0.93;;;0.60;;
38224;SDS011;24025;48.138;11.428;2022-07-29T03:08:18;0.98;;;0.60;;
38224;SDS011;24025;48.138;11.428;2022-07-29T03:10:48;0.52;;;0.40;;
38224;SDS011;24025;48.138;11.428;2022-07-29T03:13:21;0.90;;;0.60;;
38224;SDS011;24025;48.138;11.428;2022-07-29T03:15:52;0.60;;;0.50;;
38224;SDS011;24025;48.138;11.428;2022-07-29T03:18:23;0.52;;;0.52;;
38224;SDS011;24025;48.138;11.428;2022-07-29T03:20:55;1.45;;;0.60;;
38224;SDS011;24025;48.138;11.428;2022-07-29T03:23:26;4.15;;;0.88;;
38224;SDS011;24025;48.138;11.428;2022-07-29T03:25:57;1.30;;;0.70;;
38224;SDS011;24025;48.138;11.428;2022-07-29T03:28:28;0.73;;;0.50;;
38224;SDS011;24025;48.138;11.428;2022-07-29T03:30:59;0.68;;;0.68;;
38224;SDS011;24025;48.138;11.428;2022-07-29T03:33:30;1.20;;;0.63;;
38224;SDS011;24025;48.138;11.428;2022-07-29T03:36:00;0.60;;;0.60;;
38224;SDS011;24025;48.138;11.428;2022-07-29T03:38:33;0.80;;;0.57;;
38224;SDS011;24025;48.138;11.428;2022-07-29T03:41:06;1.58;;;0.70;;
38224;SDS011;24025;48.138;11.428;2022-07-29T03:43:40;0.93;;;0.65;;
38224;SDS011;24025;48.138;11.428;2022-07-29T03:46:12;2.05;;;0.60;;
38224;SDS011;24025;48.138;11.428;2022-07-29T03:48:46;1.02;;;0.60;;
38224;SDS011;24025;48.138;11.428;2022-07-29T03:51:20;0.85;;;0.50;;
38224;SDS011;24025;48.138;11.428;2022-07-29T03:53:51;1.17;;;0.57;;
38224;SDS011;24025;48.138;11.428;2022-07-29T03:56:22;0.45;;;0.40;;
38224;SDS011;24025;48.138;11.428;2022-07-29T03:58:53;0.70;;;0.70;;
38224;SDS011;24025;48.138;11.428;2022-07-29T04:01:24;1.42;;;0.90;;
38224;SDS011;24025;48.138;11.428;2022-07-29T04:03:57;1.48;;;0.73;;
38224;SDS011;24025;48.138;11.428;2022-07-29T04:06:27;0.85;;;0.50;;
38224;SDS011;24025;48.138;11.428;2022-07-29T04:08:58;2.08;;;0.68;;
38224;SDS011;24025;48.138;11.428;2022-07-29T04:11:28;1.05;;;0.70;;
38224;SDS011;24025;48.138;11.428;2022-07-29T04:13:59;1.17;;;0.90;;
38224;SDS011;24025;48.138;11.428;2022-07-29T04:16:29;1.25;;;1.02;;
38224;SDS011;24025;48.138;11.428;2022-07-29T04:18:59;3.55;;;0.82;;
38224;SDS011;24025;48.138;11.428;2022-07-29T04:21:30;1.45;;;1.10;;
38224;SDS011;24025;48.138;11.428;2022-07-29T04:24:00;1.50;;;0.80;;
38224;SDS011;24025;48.138;11.428;2022-07-29T04:26:31;1.00;;;0.68;;
38224;SDS011;24025;48.138;11.428;2022-07-29T04:29:01;2.95;;;1.10;;
38224;SDS011;24025;48.138;11.428;2022-07-29T04:31:32;1.83;;;0.90;;
38224;SDS011;24025;48.138;11.428;2022-07-29T04:34:02;3.25;;;0.85;;
38224;SDS011;24025;48.138;11.428;2022-07-29T04:36:33;1.10;;;0.90;;
38224;SDS011;24025;48.138;11.428;2022-07-29T04:39:03;3.60;;;1.10;;
38224;SDS011;24025;48.138;11.428;2022-07-29T04:41:34;2.03;;;1.08;;
38224;SDS011;24025;48.138;11.428;2022-07-29T04:44:04;1.77;;;1.40;;
38224;SDS011;24025;48.138;11.428;2022-07-29T04:46:35;1.27;;;1.00;;
38224;SDS011;24025;48.138;11.428;2022-07-29T04:49:05;5.95;;;1.48;;
38224;SDS011;24025;48.138;11.428;2022-07-29T04:51:36;1.10;;;0.75;;
38224;SDS011;24025;48.138;11.428;2022-07-29T04:54:07;1.50;;;0.85;;
38224;SDS011;24025;48.138;11.428;2022-07-29T04:56:38;1.50;;;0.80;;
38224;SDS011;24025;48.138;11.428;2022-07-29T04:59:08;3.42;;;0.70;;
38224;SDS011;24025;48.138;11.428;2022-07-29T05:01:38;1.80;;;0.82;;
38224;SDS011;24025;48.138;11.428;2022-07-29T05:04:09;1.20;;;0.80;;
38224;SDS011;24025;48.138;11.428;2022-07-29T05:06:39;1.75;;;0.85;;
38224;SDS011;24025;48.138;11.428;2022-07-29T05:09:10;1.83;;;1.10;;
38224;SDS011;24025;48.138;11.428;2022-07-29T05:11:40;1.25;;;0.90;;
38224;SDS011;24025;48.138;11.428;2022-07-29T05:14:10;1.48;;;1.05;;
38224;SDS011;24025;48.138;11.428;2022-07-29T05:16:41;3.25;;;0.90;;
38224;SDS011;24025;48.138;11.428;2022-07-29T05:19:11;3.75;;;0.90;;
38224;SDS011;24025;48.138;11.428;2022-07-29T05:21:42;4.13;;;0.93;;
38224;SDS011;24025;48.138;11.428;2022-07-29T05:24:14;1.23;;;1.13;;
38224;SDS011;24025;48.138;11.428;2022-07-29T05:26:44;1.52;;;0.80;;
38224;SDS011;24025;48.138;11.428;2022-07-29T05:29:15;2.30;;;0.70;;
38224;SDS011;24025;48.138;11.428;2022-07-29T05:31:45;1.33;;;0.68;;
38224;SDS011;24025;48.138;11.428;2022-07-29T05:34:16;0.52;;;0.52;;
38224;SDS011;24025;48.138;11.428;2022-07-29T05:36:46;2.15;;;1.08;;
38224;SDS011;24025;48.138;11.428;2022-07-29T05:39:17;3.38;;;0.60;;
38224;SDS011;24025;48.138;11.428;2022-07-29T05:41:47;3.13;;;0.65;;
38224;SDS011;24025;48.138;11.428;2022-07-29T05:44:18;2.35;;;0.80;;
38224;SDS011;24025;48.138;11.428;2022-07-29T05:46:48;1.33;;;0.90;;
38224;SDS011;24025;48.138;11.428;2022-07-29T05:49:19;1.15;;;0.70;;
38224;SDS011;24025;48.138;11.428;2022-07-29T05:51:49;1.63;;;0.70;;
38224;SDS011;24025;48.138;11.428;2022-07-29T05:54:20;1.63;;;1.00;;
38224;SDS011;24025;48.138;11.428;2022-07-29T05:56:51;2.10;;;0.93;;
38224;SDS011;24025;48.138;11.428;2022-07-29T05:59:21;1.10;;;0.77;;
38224;SDS011;24025;48.138;11.428;2022-07-29T06:01:51;1.48;;;0.75;;
38224;SDS011;24025;48.138;11.428;2022-07-29T06:04:22;1.70;;;0.77;;
38224;SDS011;24025;48.138;11.428;2022-07-29T06:06:52;1.60;;;0.85;;
38224;SDS011;24025;48.138;11.428;2022-07-29T06:09:23;2.83;;;1.58;;
38224;SDS011;24025;48.138;11.428;2022-07-29T06:11:53;1.40;;;0.90;;
38224;SDS011;24025;48.138;11.428;2022-07-29T06:14:24;0.77;;;0.60;;
38224;SDS011;24025;48.138;11.428;2022-07-29T06:19:26;3.03;;;0.65;;
38224;SDS011;24025;48.138;11.428;2022-07-29T06:21:57;3.08;;;0.85;;
38224;SDS011;24025;48.138;11.428;2022-07-29T06:24:27;2.13;;;0.80;;
38224;SDS011;24025;48.138;11.428;2022-07-29T06:26:58;0.80;;;0.75;;
38224;SDS011;24025;48.138;11.428;2022-07-29T06:29:28;2.33;;;0.60;;
38224;SDS011;24025;48.138;11.428;2022-07-29T06:31:58;1.45;;;1.20;;
38224;SDS011;24025;48.138;11.428;2022-07-29T06:34:29;1.75;;;0.63;;
38224;SDS011;24025;48.138;11.428;2022-07-29T06:36:59;1.48;;;0.65;;
38224;SDS011;24025;48.138;11.428;2022-07-29T06:39:30;3.38;;;1.00;;
38224;SDS011;24025;48.138;11.428;2022-07-29T06:42:00;1.35;;;0.65;;
38224;SDS011;24025;48.138;11.428;2022-07-29T06:44:31;0.75;;;0.60;;
38224;SDS011;24025;48.138;11.428;2022-07-29T06:47:03;1.27;;;0.77;;
38224;SDS011;24025;48.138;11.428;2022-07-29T06:49:34;0.40;;;0.40;;
38224;SDS011;24025;48.138;11.428;2022-07-29T06:52:04;1.13;;;0.65;;
38224;SDS011;24025;48.138;11.428;2022-07-29T06:54:34;4.53;;;0.60;;
38224;SDS011;24025;48.138;11.428;2022-07-29T06:57:05;1.77;;;0.68;;
38224;SDS011;24025;48.138;11.428;2022-07-29T06:59:35;0.50;;;0.50;;
38224;SDS011;24025;48.138;11.428;2022-07-29T07:02:06;0.52;;;0.50;;
38224;SDS011;24025;48.138;11.428;2022-07-29T07:04:36;0.90;;;0.50;;
38224;SDS011;24025;48.138;11.428;2022-07-29T07:07:07;3.88;;;1.35;;
38224;SDS011;24025;48.138;11.428;2022-07-29T07:09:37;0.55;;;0.55;;
38224;SDS011;24025;48.138;11.428;2022-07-29T07:12:08;1.25;;;0.60;;
38224;SDS011;24025;48.138;11.428;2022-07-29T07:14:38;0.75;;;0.50;;
38224;SDS011;24025;48.138;11.428;2022-07-29T07:19:41;2.00;;;0.70;;
38224;SDS011;24025;48.138;11.428;2022-07-29T07:22:11;1.58;;;0.77;;
38224;SDS011;24025;48.138;11.428;2022-07-29T07:24:41;1.35;;;0.50;;
38224;SDS011;24025;48.138;11.428;2022-07-29T07:27:12;2.63;;;0.60;;
38224;SDS011;24025;48.138;11.428;2022-07-29T07:29:42;0.80;;;0.70;;
38224;SDS011;24025;48.138;11.428;2022-07-29T07:32:12;1.00;;;0.50;;
38224;SDS011;24025;48.138;11.428;2022-07-29T07:34:44;1.98;;;0.88;;
38224;SDS011;24025;48.138;11.428;2022-07-29T07:37:14;2.20;;;0.55;;
38224;SDS011;24025;48.138;11.428;2022-07-29T07:39:45;0.63;;;0.52;;
38224;SDS011;24025;48.138;11.428;2022-07-29T07:42:16;4.45;;;0.75;;
38224;SDS011;24025;48.138;11.428;2022-07-29T07:44:46;1.05;;;0.63;;
38224;SDS011;24025;48.138;11.428;2022-07-29T07:47:18;2.30;;;0.80;;
38224;SDS011;24025;48.138;11.428;2022-07-29T07:49:53;2.00;;;0.82;;
38224;SDS011;24025;48.138;11.428;2022-07-29T07:52:23;0.60;;;0.50;;
38224;SDS011;24025;48.138;11.428;2022-07-29T07:54:54;0.98;;;0.57;;
38224;SDS011;24025;48.138;11.428;2022-07-29T07:57:24;1.02;;;0.70;;
38224;SDS011;24025;48.138;11.428;2022-07-29T07:59:55;1.98;;;0.70;;
38224;SDS011;24025;48.138;11.428;2022-07-29T08:02:25;2.88;;;0.60;;
38224;SDS011;24025;48.138;11.428;2022-07-29T08:04:55;2.97;;;0.70;;
38224;SDS011;24025;48.138;11.428;2022-07-29T08:07:26;4.25;;;0.75;;
38224;SDS011;24025;48.138;11.428;2022-07-29T08:09:56;4.25;;;1.00;;
38224;SDS011;24025;48.138;11.428;2022-07-29T08:12:27;8.18;;;1.08;;
38224;SDS011;24025;48.138;11.428;2022-07-29T08:14:57;5.72;;;0.82;;
38224;SDS011;24025;48.138;11.428;2022-07-29T08:17:28;1.27;;;0.60;;
38224;SDS011;24025;48.138;11.428;2022-07-29T08:19:58;3.30;;;0.70;;
38224;SDS011;24025;48.138;11.428;2022-07-29T08:22:28;1.05;;;0.70;;
38224;SDS011;24025;48.138;11.428;2022-07-29T08:24:59;1.33;;;0.90;;
38224;SDS011;24025;48.138;11.428;2022-07-29T08:27:29;1.77;;;0.90;;
38224;SDS011;24025;48.138;11.428;2022-07-29T08:30:02;1.23;;;0.80;;
38224;SDS011;24025;48.138;11.428;2022-07-29T08:32:33;3.05;;;1.17;;
38224;SDS011;24025;48.138;11.428;2022-07-29T08:35:04;3.90;;;1.30;;
38224;SDS011;24025;48.138;11.428;2022-07-29T08:37:34;0.80;;;0.73;;
38224;SDS011;24025;48.138;11.428;2022-07-29T08:40:05;1.30;;;0.97;;
38224;SDS011;24025;48.138;11.428;2022-07-29T08:42:36;1.43;;;0.97;;
38224;SDS011;24025;48.138;11.428;2022-07-29T08:45:07;1.63;;;1.07;;
38224;SDS011;24025;48.138;11.428;2022-07-29T08:47:38;1.27;;;1.17;;
38224;SDS011;24025;48.138;11.428;2022-07-29T08:50:12;2.45;;;0.80;;
38224;SDS011;24025;48.138;11.428;2022-07-29T08:52:43;2.57;;;0.93;;
38224;SDS011;24025;48.138;11.428;2022-07-29T08:55:14;4.40;;;1.50;;
38224;SDS011;24025;48.138;11.428;2022-07-29T08:57:45;1.75;;;1.10;;
38224;SDS011;24025;48.138;11.428;2022-07-29T09:00:17;1.80;;;0.97;;
38224;SDS011;24025;48.138;11.428;2022-07-29T09:02:48;2.30;;;1.10;;
38224;SDS011;24025;48.138;11.428;2022-07-29T09:05:26;1.38;;;1.00;;
38224;SDS011;24025;48.138;11.428;2022-07-29T09:07:57;2.45;;;1.38;;
38224;SDS011;24025;48.138;11.428;2022-07-29T09:10:29;2.80;;;1.20;;
38224;SDS011;24025;48.138;11.428;2022-07-29T09:13:00;2.23;;;0.90;;
38224;SDS011;24025;48.138;11.428;2022-07-29T09:15:30;1.50;;;0.83;;
38224;SDS011;24025;48.138;11.428;2022-07-29T09:18:01;1.47;;;1.07;;
38224;SDS011;24025;48.138;11.428;2022-07-29T09:20:32;1.73;;;0.90;;
38224;SDS011;24025;48.138;11.428;2022-07-29T09:23:21;2.20;;;0.98;;
38224;SDS011;24025;48.138;11.428;2022-07-29T09:25:52;1.48;;;1.20;;
38224;SDS011;24025;48.138;11.428;2022-07-29T09:28:23;2.17;;;0.90;;
38224;SDS011;24025;48.138;11.428;2022-07-29T09:30:54;1.87;;;1.07;;
38224;SDS011;24025;48.138;11.428;2022-07-29T09:33:31;1.65;;;1.10;;
38224;SDS011;24025;48.138;11.428;2022-07-29T09:36:05;1.05;;;0.90;;
38224;SDS011;24025;48.138;11.428;2022-07-29T09:38:37;1.55;;;1.25;;
38224;SDS011;24025;48.138;11.428;2022-07-29T09:41:07;1.60;;;1.13;;
38224;SDS011;24025;48.138;11.428;2022-07-29T09:43:40;2.80;;;1.35;;
38224;SDS011;24025;48.138;11.428;2022-07-29T09:46:12;1.10;;;0.90;;
38224;SDS011;24025;48.138;11.428;2022-07-29T09:48:44;4.93;;;1.70;;
38224;SDS011;24025;48.138;11.428;2022-07-29T09:51:17;1.27;;;1.10;;
38224;SDS011;24025;48.138;11.428;2022-07-29T09:53:49;1.38;;;1.20;;
38224;SDS011;24025;48.138;11.428;2022-07-29T09:56:20;2.70;;;1.30;;
38224;SDS011;24025;48.138;11.428;2022-07-29T09:59:18;6.43;;;1.27;;
38224;SDS011;24025;48.138;11.428;2022-07-29T10:01:50;2.15;;;1.30;;
38224;SDS011;24025;48.138;11.428;2022-07-29T10:04:20;3.07;;;1.10;;
38224;SDS011;24025;48.138;11.428;2022-07-29T10:06:58;2.27;;;1.10;;
38224;SDS011;24025;48.138;11.428;2022-07-29T10:09:33;6.55;;;1.33;;
38224;SDS011;24025;48.138;11.428;2022-07-29T10:12:04;1.77;;;1.55;;
38224;SDS011;24025;48.138;11.428;2022-07-29T10:14:37;1.17;;;1.08;;
38224;SDS011;24025;48.138;11.428;2022-07-29T10:17:09;3.57;;;1.33;;
38224;SDS011;24025;48.138;11.428;2022-07-29T10:19:40;3.35;;;1.15;;
38224;SDS011;24025;48.138;11.428;2022-07-29T10:22:11;4.07;;;1.42;;
38224;SDS011;24025;48.138;11.428;2022-07-29T10:24:42;2.47;;;1.23;;
38224;SDS011;24025;48.138;11.428;2022-07-29T10:27:13;2.17;;;1.30;;
38224;SDS011;24025;48.138;11.428;2022-07-29T10:29:43;3.33;;;1.30;;
38224;SDS011;24025;48.138;11.428;2022-07-29T10:35:54;2.78;;;1.23;;
38224;SDS011;24025;48.138;11.428;2022-07-29T10:44:08;4.53;;;1.40;;
38224;SDS011;24025;48.138;11.428;2022-07-29T10:46:42;4.25;;;1.30;;
38224;SDS011;24025;48.138;11.428;2022-07-29T10:49:17;3.58;;;1.98;;
38224;SDS011;24025;48.138;11.428;2022-07-29T10:59:46;8.00;;;2.67;;
38224;SDS011;24025;48.138;11.428;2022-07-29T11:05:04;9.35;;;2.55;;
38224;SDS011;24025;48.138;11.428;2022-07-29T11:07:39;2.95;;;1.60;;
38224;SDS011;24025;48.138;11.428;2022-07-29T11:10:29;3.42;;;1.40;;
38224;SDS011;24025;48.138;11.428;2022-07-29T11:13:00;2.53;;;1.40;;
38224;SDS011;24025;48.138;11.428;2022-07-29T11:15:51;6.00;;;1.23;;
38224;SDS011;24025;48.138;11.428;2022-07-29T11:18:24;2.95;;;1.10;;
38224;SDS011;24025;48.138;11.428;2022-07-29T11:20:54;2.63;;;1.27;;
38224;SDS011;24025;48.138;11.428;2022-07-29T11:23:34;6.33;;;1.57;;
38224;SDS011;24025;48.138;11.428;2022-07-29T11:28:57;2.60;;;1.23;;
38224;SDS011;24025;48.138;11.428;2022-07-29T11:31:45;4.93;;;1.15;;
38224;SDS011;24025;48.138;11.428;2022-07-29T11:34:22;4.18;;;1.35;;
38224;SDS011;24025;48.138;11.428;2022-07-29T11:39:45;2.60;;;1.20;;
38224;SDS011;24025;48.138;11.428;2022-07-29T11:44:57;1.63;;;1.20;;
38224;SDS011;24025;48.138;11.428;2022-07-29T11:47:36;3.72;;;1.33;;
38224;SDS011;24025;48.138;11.428;2022-07-29T11:50:09;3.50;;;1.58;;
38224;SDS011;24025;48.138;11.428;2022-07-29T11:52:42;2.45;;;1.10;;
38224;SDS011;24025;48.138;11.428;2022-07-29T11:55:18;4.10;;;1.20;;
38224;SDS011;24025;48.138;11.428;2022-07-29T11:57:52;9.18;;;1.33;;
38224;SDS011;24025;48.138;11.428;2022-07-29T12:00:24;6.07;;;1.00;;
38224;SDS011;24025;48.138;11.428;2022-07-29T12:02:57;1.98;;;1.13;;
38224;SDS011;24025;48.138;11.428;2022-07-29T12:05:41;3.28;;;1.25;;
38224;SDS011;24025;48.138;11.428;2022-07-29T12:08:16;9.20;;;1.40;;
38224;SDS011;24025;48.138;11.428;2022-07-29T12:10:51;4.28;;;1.35;;
38224;SDS011;24025;48.138;11.428;2022-07-29T12:13:22;2.50;;;1.33;;
38224;SDS011;24025;48.138;11.428;2022-07-29T12:18:25;2.73;;;1.10;;
38224;SDS011;24025;48.138;11.428;2022-07-29T12:20:57;2.08;;;1.27;;
38224;SDS011;24025;48.138;11.428;2022-07-29T12:23:29;3.85;;;1.13;;
38224;SDS011;24025;48.138;11.428;2022-07-29T12:26:03;4.18;;;1.83;;
38224;SDS011;24025;48.138;11.428;2022-07-29T12:28:38;5.68;;;1.52;;
38224;SDS011;24025;48.138;11.428;2022-07-29T12:31:15;1.33;;;1.02;;
38224;SDS011;24025;48.138;11.428;2022-07-29T12:33:51;3.97;;;1.48;;
38224;SDS011;24025;48.138;11.428;2022-07-29T12:36:23;5.53;;;1.30;;
38224;SDS011;24025;48.138;11.428;2022-07-29T12:38:53;1.97;;;1.10;;
38224;SDS011;24025;48.138;11.428;2022-07-29T12:41:24;5.07;;;1.03;;
38224;SDS011;24025;48.138;11.428;2022-07-29T12:43:55;2.87;;;1.07;;
38224;SDS011;24025;48.138;11.428;2022-07-29T12:46:25;2.60;;;1.50;;
38224;SDS011;24025;48.138;11.428;2022-07-29T12:48:56;1.38;;;1.02;;
38224;SDS011;24025;48.138;11.428;2022-07-29T12:51:32;4.88;;;1.52;;
38224;SDS011;24025;48.138;11.428;2022-07-29T12:54:08;3.88;;;1.25;;
38224;SDS011;24025;48.138;11.428;2022-07-29T12:56:43;3.45;;;1.20;;
38224;SDS011;24025;48.138;11.428;2022-07-29T12:59:15;2.80;;;1.33;;
38224;SDS011;24025;48.138;11.428;2022-07-29T13:01:48;4.75;;;1.35;;
38224;SDS011;24025;48.138;11.428;2022-07-29T13:04:26;2.92;;;1.33;;
38224;SDS011;24025;48.138;11.428;2022-07-29T13:07:02;3.88;;;1.40;;
38224;SDS011;24025;48.138;11.428;2022-07-29T13:09:42;6.30;;;1.40;;
38224;SDS011;24025;48.138;11.428;2022-07-29T13:12:15;12.07;;;1.48;;
38224;SDS011;24025;48.138;11.428;2022-07-29T13:14:49;3.00;;;1.50;;
38224;SDS011;24025;48.138;11.428;2022-07-29T13:17:20;5.28;;;1.25;;
38224;SDS011;24025;48.138;11.428;2022-07-29T13:20:07;6.50;;;1.23;;
38224;SDS011;24025;48.138;11.428;2022-07-29T13:22:42;2.35;;;1.15;;
38224;SDS011;24025;48.138;11.428;2022-07-29T13:25:12;1.63;;;1.00;;
38224;SDS011;24025;48.138;11.428;2022-07-29T13:27:43;1.90;;;1.23;;
38224;SDS011;24025;48.138;11.428;2022-07-29T13:30:15;5.80;;;1.30;;
38224;SDS011;24025;48.138;11.428;2022-07-29T13:32:46;1.87;;;1.30;;
38224;SDS011;24025;48.138;11.428;2022-07-29T13:35:17;4.57;;;1.10;;
38224;SDS011;24025;48.138;11.428;2022-07-29T13:37:50;1.58;;;1.20;;
38224;SDS011;24025;48.138;11.428;2022-07-29T13:40:20;2.87;;;1.20;;
38224;SDS011;24025;48.138;11.428;2022-07-29T13:42:51;4.10;;;1.20;;
38224;SDS011;24025;48.138;11.428;2022-07-29T13:45:21;6.37;;;1.60;;
38224;SDS011;24025;48.138;11.428;2022-07-29T13:47:51;1.57;;;0.70;;
38224;SDS011;24025;48.138;11.428;2022-07-29T13:50:22;3.23;;;1.10;;
38224;SDS011;24025;48.138;11.428;2022-07-29T13:52:52;2.33;;;1.00;;
38224;SDS011;24025;48.138;11.428;2022-07-29T13:55:23;2.57;;;0.87;;
38224;SDS011;24025;48.138;11.428;2022-07-29T13:57:53;6.60;;;1.00;;
38224;SDS011;24025;48.138;11.428;2022-07-29T14:00:24;1.93;;;1.10;;
38224;SDS011;24025;48.138;11.428;2022-07-29T14:02:54;7.63;;;1.50;;
38224;SDS011;24025;48.138;11.428;2022-07-29T14:05:25;2.10;;;1.00;;
38224;SDS011;24025;48.138;11.428;2022-07-29T14:07:55;1.43;;;1.20;;
38224;SDS011;24025;48.138;11.428;2022-07-29T14:10:26;1.70;;;0.90;;
38224;SDS011;24025;48.138;11.428;2022-07-29T14:12:56;6.93;;;1.37;;
38224;SDS011;24025;48.138;11.428;2022-07-29T14:15:26;1.40;;;1.00;;
38224;SDS011;24025;48.138;11.428;2022-07-29T14:17:57;3.40;;;0.90;;
38224;SDS011;24025;48.138;11.428;2022-07-29T14:20:27;2.07;;;1.00;;
38224;SDS011;24025;48.138;11.428;2022-07-29T14:23:00;1.30;;;1.20;;
38224;SDS011;24025;48.138;11.428;2022-07-29T14:25:31;1.60;;;1.00;;
38224;SDS011;24025;48.138;11.428;2022-07-29T14:28:01;3.70;;;1.00;;
38224;SDS011;24025;48.138;11.428;2022-07-29T14:30:32;1.63;;;1.13;;
38224;SDS011;24025;48.138;11.428;2022-07-29T14:33:02;2.33;;;1.37;;
38224;SDS011;24025;48.138;11.428;2022-07-29T14:35:33;5.83;;;1.40;;
38224;SDS011;24025;48.138;11.428;2022-07-29T14:38:03;3.97;;;0.97;;
38224;SDS011;24025;48.138;11.428;2022-07-29T14:40:33;3.03;;;0.90;;
38224;SDS011;24025;48.138;11.428;2022-07-29T14:43:04;1.63;;;1.20;;
38224;SDS011;24025;48.138;11.428;2022-07-29T14:45:34;4.73;;;1.10;;
38224;SDS011;24025;48.138;11.428;2022-07-29T14:48:05;2.90;;;1.07;;
38224;SDS011;24025;48.138;11.428;2022-07-29T14:50:35;2.83;;;1.00;;
38224;SDS011;24025;48.138;11.428;2022-07-29T14:53:06;5.37;;;1.53;;
38224;SDS011;24025;48.138;11.428;2022-07-29T14:55:36;1.80;;;1.30;;
38224;SDS011;24025;48.138;11.428;2022-07-29T14:58:07;2.63;;;1.20;;
38224;SDS011;24025;48.138;11.428;2022-07-29T15:00:38;3.10;;;1.40;;
38224;SDS011;24025;48.138;11.428;2022-07-29T15:03:08;2.63;;;1.30;;
38224;SDS011;24025;48.138;11.428;2022-07-29T15:05:41;3.83;;;1.33;;
38224;SDS011;24025;48.138;11.428;2022-07-29T15:08:12;2.70;;;1.33;;
38224;SDS011;24025;48.138;11.428;2022-07-29T15:10:42;5.40;;;1.50;;
38224;SDS011;24025;48.138;11.428;2022-07-29T15:13:12;2.27;;;1.60;;
38224;SDS011;24025;48.138;11.428;2022-07-29T15:15:43;1.50;;;1.10;;
38224;SDS011;24025;48.138;11.428;2022-07-29T15:18:15;6.30;;;1.67;;
38224;SDS011;24025;48.138;11.428;2022-07-29T15:20:45;3.63;;;1.60;;
38224;SDS011;24025;48.138;11.428;2022-07-29T15:23:16;1.30;;;1.20;;
38224;SDS011;24025;48.138;11.428;2022-07-29T15:25:47;1.73;;;1.20;;
38224;SDS011;24025;48.138;11.428;2022-07-29T15:28:17;1.53;;;1.33;;
38224;SDS011;24025;48.138;11.428;2022-07-29T15:30:47;3.37;;;1.47;;
38224;SDS011;24025;48.138;11.428;2022-07-29T15:33:18;2.30;;;1.40;;
38224;SDS011;24025;48.138;11.428;2022-07-29T15:35:48;3.57;;;1.43;;
38224;SDS011;24025;48.138;11.428;2022-07-29T15:38:19;2.07;;;1.50;;
38224;SDS011;24025;48.138;11.428;2022-07-29T15:40:49;2.57;;;1.50;;
38224;SDS011;24025;48.138;11.428;2022-07-29T15:43:20;2.47;;;1.60;;
38224;SDS011;24025;48.138;11.428;2022-07-29T15:45:50;3.13;;;1.30;;
38224;SDS011;24025;48.138;11.428;2022-07-29T15:48:39;2.10;;;1.35;;
38224;SDS011;24025;48.138;11.428;2022-07-29T15:51:09;1.63;;;1.30;;
38224;SDS011;24025;48.138;11.428;2022-07-29T15:53:40;3.10;;;1.73;;
38224;SDS011;24025;48.138;11.428;2022-07-29T15:56:10;3.23;;;1.47;;
38224;SDS011;24025;48.138;11.428;2022-07-29T15:58:41;3.47;;;1.67;;
38224;SDS011;24025;48.138;11.428;2022-07-29T16:01:12;3.17;;;1.70;;
38224;SDS011;24025;48.138;11.428;2022-07-29T16:03:42;3.23;;;1.60;;